PAGINA EN CONSTRUCCIÓN

DISCULPEN POSIBLES FALLOS



Daganzo more information Daganzo


Meteosat more information blitzortung!


Radar lluvias  rain snow radar


Visita nuestra red de sitios de meteo:

Documentation for the template used

MeteoibericaRed estaciones Meteorologicas



Sin Advertencias climatologicas .En este momento tenemos Nivel Verde.    No hay Alarmas

Informes METAR proximidad

   
LEMD - Madrid/Barajas
Actualización: 22-09-2018 05:00
Despejado  
Despejado  
   Viento: N 5.6 km/h
Viento: N 5.6 km/h
Temperatura: 18°C
Punto de rocío: 11°C
Humedad: 64%
Baromètro: 1023 hPa
Visibilidad: More than 10 km
detalles de la nube: Despejado
LEMD 220500Z 36003KT CAVOK 18/11 Q1023 NOSIG
LEBL - Barcelona/El Prat
Actualización: 22-09-2018 05:00
Nubes dispersas  
Nubes dispersas  
   Viento: NNW 9.3 km/h
Viento: NNW 9.3 km/h
Temperatura: 22°C
Punto de rocío: 20°C
Humedad: 88%
Baromètro: 1020 hPa
Nublado: Nubes dispersas
Visibilidad: 9 km
detalles de la nube: Nubes dispersas 1200 ft
LEBL 220500Z 33005KT 9000 FEW012 22/20 Q1020 NOSIG
LEVC - Valencia
Actualización: 22-09-2018 05:00
Despejado  
Despejado  
   Viento: West 5.6 km/h
Viento: West 5.6 km/h
Temperatura: 21°C
Punto de rocío: 19°C
Humedad: 88%
Baromètro: 1020 hPa
Visibilidad: More than 10 km
detalles de la nube: Despejado
LEVC 220500Z 28003KT CAVOK 21/19 Q1020 NOSIG
LETO - Madrid/Torrejon
Actualización: 22-09-2018 05:00
Despejado  
Despejado  
   Viento: NNE 3.7 km/h
Viento: NNE 3.7 km/h
Temperatura: 16°C
Punto de rocío: 11°C
Humedad: 72%
Baromètro: 1023 hPa
Visibilidad: More than 10 km
detalles de la nube: Despejado
LETO 220500Z 03002KT CAVOK 16/11 Q1023 NOSIG
LEVS - Madrid/Cuatro Vientos
Actualización: 22-09-2018 05:00
Despejado  
Despejado  
   Viento: N 7.4 km/h
Viento: N 7.4 km/h
Temperatura: 21°C
Punto de rocío: 11°C
Humedad: 53%
Baromètro: 1024 hPa
Visibilidad: More than 10 km
detalles de la nube: Despejado
LEVS 220500Z 01004KT 330V070 CAVOK 21/11 Q1024
LEGT - Madrid/Getafe
Actualización: 22-09-2018 05:00
Despejado  
Despejado  
   Viento: NE 5.6 km/h
Viento: NE 5.6 km/h
Temperatura: 20°C
Punto de rocío: 11°C
Humedad: 56%
Baromètro: 1023 hPa
Visibilidad: More than 10 km
detalles de la nube: Despejado
LEGT 220500Z 04003KT CAVOK 20/11 Q1023
LEVD - Valladolid
Actualización: 22-09-2018 05:00
Despejado  
Despejado  
   Viento: N 11.1 km/h
Viento: N 11.1 km/h
Temperatura: 10°C
Térmica: 8°C
Punto de rocío: 9°C
Humedad: 94%
Baromètro: 1025 hPa
Visibilidad: More than 10 km
detalles de la nube: Despejado
LEVD 220500Z 01006KT CAVOK 10/09 Q1025
LEZG - Zaragoza
Actualización: 22-09-2018 05:00
Nubes dispersas  
Nubes dispersas  
   Viento: West 14.8 km/h
Viento: West 14.8 km/h
Temperatura: 19°C
Punto de rocío: 14°C
Humedad: 73%
Baromètro: 1023 hPa
Nublado: Nubes dispersas
Visibilidad: More than 10 km
detalles de la nube: Nubes dispersas 5000 ft
LEZG 220500Z 27008KT 9999 FEW050 19/14 Q1023
LEVT - Vitoria
Actualización: 22-09-2018 05:00
Parcialmente nublado  
Parcialmente nublado  
   Viento: calma
Viento: calma
Temperatura: 14°C
Punto de rocío: 13°C
Humedad: 94%
Baromètro: 1024 hPa
Nublado: Parcialmente nublado
Visibilidad: More than 10 km
detalles de la nube: Parcialmente nublado 900 ft
LEVT 220500Z 00000KT 9999 BKN009 14/13 Q1024
LELN - Leon/Virgen del Camino
Actualización: 22-09-2018 05:00
Despejado  
Despejado  
   Viento: varía 1.9 km/h
Viento: varía 1.9 km/h
Temperatura: 11°C
Punto de rocío: 10°C
Humedad: 94%
Baromètro: 1025 hPa
Nublado: Despejado
Visibilidad: More than 10 km
detalles de la nube: Despejado
LELN 220500Z AUTO VRB01KT 9999 NCD 11/10 Q1025
LEPP - Pamplona/Noain
Actualización: 22-09-2018 05:00
Despejado  
Despejado  
   Viento: E 1.9 km/h
Viento: E 1.9 km/h
Temperatura: 14°C
Punto de rocío: 13°C
Humedad: 94%
Baromètro: 1024 hPa
Visibilidad: More than 10 km
detalles de la nube: Despejado
LEPP 220500Z 10001KT CAVOK 14/13 Q1024
LEBB - Bilbao/Sondica
Actualización: 22-09-2018 05:00
Despejado  
Despejado  
   Viento: SSE 7.4 km/h
Viento: SSE 7.4 km/h
Temperatura: 17°C
Punto de rocío: 17°C
Humedad: 100%
Baromètro: 1022 hPa
Visibilidad: More than 10 km
detalles de la nube: Despejado
LEBB 220500Z 16004KT CAVOK 17/17 Q1022 TEMPO 4000 BR

Guión original por  Saratoga-weather.org Adaptado para la plantilla por  Weerstation Leuven

Usted encontrará nuestra información del tiempo también en:

WeatherCloud

Weather Underground

Iberian Peninsula Weather Network

AWEKAS

Citizen Weather Observer Program (CWOP)